Time;durP1;ratioP1;P1;durP2;ratioP2;P2;SDS_P1;SDS_P2;PMS_P1;PMS_P2;Temp;Humidity;BMP_temperature;BMP_pressure;BME280_temperature;BME280_humidity;BME280_pressure;Samples;Min_cycle;Max_cycle;Signal;HPM_P1;HPM_P2
2023/01/19 00:01:40;;;;;;;2.50;2.50;;;16.70;63.20;;;;;;5094793;27;43455;-75
2023/01/19 00:04:08;;;;;;;2.80;2.70;;;16.70;63.20;;;;;;5102352;27;43846;-75
2023/01/19 00:06:36;;;;;;;2.90;2.80;;;16.70;63.40;;;;;;5080118;27;45861;-73
2023/01/19 00:09:04;;;;;;;2.90;2.80;;;16.70;63.40;;;;;;5099033;27;43560;-75
2023/01/19 00:11:32;;;;;;;3.07;2.97;;;16.70;63.50;;;;;;5088633;27;43451;-75
2023/01/19 00:14:00;;;;;;;3.00;2.90;;;16.70;63.40;;;;;;5102424;27;43489;-74
2023/01/19 00:16:29;;;;;;;2.77;2.67;;;16.60;63.30;;;;;;5099906;27;43954;-73
2023/01/19 00:18:57;;;;;;;2.87;2.77;;;16.60;63.40;;;;;;5105982;27;43446;-74
2023/01/19 00:21:25;;;;;;;3.00;2.90;;;16.60;63.50;;;;;;5099832;27;43419;-74
2023/01/19 00:23:53;;;;;;;2.57;2.57;;;16.60;63.80;;;;;;5104868;27;43549;-74
2023/01/19 00:26:21;;;;;;;3.20;3.10;;;16.70;63.70;;;;;;5104343;27;43861;-74
2023/01/19 00:28:50;;;;;;;3.00;2.90;;;16.70;63.30;;;;;;5101042;27;43432;-74
2023/01/19 00:31:20;;;;;;;2.63;2.53;;;16.80;63.10;;;;;;5101793;27;43423;-73
2023/01/19 00:33:51;;;;;;;2.67;2.63;;;16.80;63.10;;;;;;5089544;27;44010;-73
2023/01/19 00:36:19;;;;;;;2.60;2.60;;;16.80;63.10;;;;;;5094230;27;43857;-74
2023/01/19 00:38:47;;;;;;;2.90;2.80;;;16.70;63.20;;;;;;5103714;27;43549;-73
2023/01/19 00:41:15;;;;;;;2.77;2.67;;;16.70;63.20;;;;;;5079898;27;43914;-74
2023/01/19 00:43:42;;;;;;;2.83;2.83;;;16.70;63.20;;;;;;5102324;27;43387;-74
2023/01/19 00:46:10;;;;;;;2.70;2.70;;;16.70;63.20;;;;;;5098296;27;43875;-74
2023/01/19 00:48:38;;;;;;;2.80;2.80;;;16.70;63.30;;;;;;5106942;27;43462;-73
2023/01/19 00:51:07;;;;;;;2.50;2.50;;;16.70;63.30;;;;;;5099764;27;43856;-72
2023/01/19 00:53:35;;;;;;;2.80;2.80;;;16.60;63.30;;;;;;5102546;27;44075;-75
2023/01/19 00:56:03;;;;;;;2.97;2.87;;;16.60;63.50;;;;;;5078066;27;46078;-74
2023/01/19 00:58:31;;;;;;;2.87;2.77;;;16.60;63.40;;;;;;5099861;27;43761;-73
2023/01/19 01:01:02;;;;;;;2.80;2.70;;;16.60;63.40;;;;;;5105507;27;43365;-73
2023/01/19 01:03:30;;;;;;;2.80;2.80;;;16.60;63.40;;;;;;5080872;27;43480;-74
2023/01/19 01:05:58;;;;;;;2.67;2.67;;;16.60;63.40;;;;;;5081765;27;45426;-75
2023/01/19 01:08:28;;;;;;;2.70;2.70;;;16.60;63.50;;;;;;5081694;27;44262;-75
2023/01/19 01:10:55;;;;;;;2.80;2.70;;;16.60;63.60;;;;;;5103306;27;43449;-74
2023/01/19 01:13:23;;;;;;;2.87;2.77;;;16.60;63.80;;;;;;5105926;27;43449;-73
2023/01/19 01:15:55;;;;;;;2.80;2.70;;;16.70;63.60;;;;;;5099343;27;43916;-73
2023/01/19 01:18:23;;;;;;;2.80;2.70;;;16.80;63.30;;;;;;5072005;27;44562;-74
2023/01/19 01:20:51;;;;;;;2.60;2.60;;;16.80;63.00;;;;;;5085293;27;43479;-74
2023/01/19 01:23:22;;;;;;;3.47;3.37;;;16.80;63.00;;;;;;5097670;27;43476;-75
2023/01/19 01:25:51;;;;;;;2.97;2.77;;;16.80;63.00;;;;;;5097088;27;43603;-74
2023/01/19 01:28:19;;;;;;;2.93;2.83;;;16.70;63.20;;;;;;5097627;27;43572;-73
2023/01/19 01:30:47;;;;;;;2.93;2.83;;;16.70;63.10;;;;;;5081780;27;43396;-73
2023/01/19 01:33:15;;;;;;;2.73;2.63;;;16.70;63.10;;;;;;5094043;27;43523;-75
2023/01/19 01:36:03;;;;;;;2.83;2.73;;;16.70;63.20;;;;;;5097714;27;43561;-74
2023/01/19 01:38:31;;;;;;;2.90;2.80;;;16.70;63.20;;;;;;5092186;27;43529;-75
2023/01/19 01:41:00;;;;;;;2.93;2.83;;;16.70;63.30;;;;;;5094932;27;43416;-75
2023/01/19 01:43:42;;;;;;;3.13;3.03;;;16.70;63.50;;;;;;5097880;27;43408;-73
2023/01/19 01:46:10;;;;;;;2.90;2.80;;;16.60;63.40;;;;;;5087391;27;43713;-74
2023/01/19 01:48:38;;;;;;;2.60;2.60;;;16.60;63.40;;;;;;5086635;27;43439;-73
2023/01/19 01:51:26;;;;;;;2.83;2.73;;;16.60;63.50;;;;;;5075879;27;43450;-74
2023/01/19 01:54:05;;;;;;;2.70;2.70;;;16.60;63.30;;;;;;5093709;27;43485;-74
2023/01/19 01:56:36;;;;;;;3.17;3.07;;;16.60;63.40;;;;;;5085346;27;45357;-74
2023/01/19 01:59:06;;;;;;;3.10;3.00;;;16.60;63.50;;;;;;5083289;27;44764;-74
2023/01/19 02:04:20;;;;;;;3.23;3.13;;;16.60;63.70;;;;;;5097197;27;43475;-74
2023/01/19 02:15:15;;;;;;;3.10;3.00;;;16.70;63.10;;;;;;5095585;27;43931;-73
2023/01/19 02:17:43;;;;;;;2.90;2.80;;;16.70;63.40;;;;;;5100083;27;43927;-74
2023/01/19 02:20:12;;;;;;;3.20;3.10;;;16.70;63.20;;;;;;5105623;27;44079;-73
2023/01/19 02:22:43;;;;;;;3.23;3.13;;;16.70;63.20;;;;;;5102167;27;43423;-74
2023/01/19 02:25:13;;;;;;;2.90;2.87;;;16.60;63.20;;;;;;5102309;27;43935;-74
2023/01/19 02:27:41;;;;;;;2.73;2.63;;;16.60;63.20;;;;;;5106230;27;43940;-74
2023/01/19 02:30:10;;;;;;;2.73;2.73;;;16.60;63.30;;;;;;5085643;27;44646;-73
2023/01/19 02:32:38;;;;;;;2.70;2.70;;;16.60;63.40;;;;;;5102669;27;43439;-72
2023/01/19 02:35:06;;;;;;;3.07;2.97;;;16.60;63.80;;;;;;5088381;27;43528;-74
2023/01/19 02:37:36;;;;;;;2.80;2.80;;;16.70;63.60;;;;;;5101245;27;43975;-74
2023/01/19 02:40:05;;;;;;;2.70;2.70;;;16.70;63.20;;;;;;5101931;27;43383;-74
2023/01/19 02:42:36;;;;;;;3.13;3.03;;;16.80;63.00;;;;;;5084228;27;44764;-75
2023/01/19 02:45:05;;;;;;;2.83;2.83;;;16.80;63.00;;;;;;5099326;27;43459;-74
2023/01/19 02:47:38;;;;;;;3.17;3.07;;;16.70;62.90;;;;;;5083907;27;45626;-74
2023/01/19 02:50:26;;;;;;;2.50;2.50;;;16.70;63.20;;;;;;5085466;27;45286;-74
2023/01/19 02:52:54;;;;;;;2.93;2.90;;;16.70;63.20;;;;;;5094895;27;44022;-74
2023/01/19 02:55:22;;;;;;;3.03;2.93;;;16.70;63.20;;;;;;5074056;27;44012;-74
2023/01/19 02:57:56;;;;;;;2.70;2.70;;;16.70;63.20;;;;;;5104552;27;43873;-73
2023/01/19 03:00:31;;;;;;;3.03;2.93;;;16.60;63.20;;;;;;5096067;27;43462;-74
2023/01/19 03:03:08;;;;;;;3.13;3.03;;;16.60;63.20;;;;;;5107989;27;43420;-74
2023/01/19 03:05:45;;;;;;;3.20;3.10;;;16.60;63.50;;;;;;5106349;27;43411;-74
2023/01/19 03:08:16;;;;;;;2.77;2.77;;;16.60;63.30;;;;;;5097296;27;43922;-74
2023/01/19 03:10:47;;;;;;;2.97;2.87;;;16.60;63.50;;;;;;5103750;27;43326;-75
2023/01/19 03:13:18;;;;;;;2.70;2.70;;;16.60;63.40;;;;;;5088198;27;44049;-73
2023/01/19 03:15:49;;;;;;;3.40;3.30;;;16.60;64.10;;;;;;5104511;27;43473;-74
2023/01/19 03:18:19;;;;;;;3.07;2.97;;;16.60;63.40;;;;;;5098143;27;43607;-74
2023/01/19 03:20:48;;;;;;;3.13;3.03;;;16.50;63.50;;;;;;5103870;27;43458;-73
2023/01/19 03:23:15;;;;;;;3.20;3.10;;;16.50;63.70;;;;;;5082805;27;43387;-74
2023/01/19 03:25:44;;;;;;;3.00;2.90;;;16.60;63.70;;;;;;5107300;27;43419;-74
2023/01/19 03:28:12;;;;;;;3.00;3.00;;;16.70;63.20;;;;;;5102744;27;43619;-74
2023/01/19 03:30:44;;;;;;;2.97;2.87;;;16.80;63.00;;;;;;5102466;27;43897;-74
2023/01/19 03:33:14;;;;;;;2.80;2.80;;;16.70;62.90;;;;;;5097713;27;44059;-74
2023/01/19 03:35:46;;;;;;;2.80;2.70;;;16.70;62.90;;;;;;5103910;27;43453;-74
2023/01/19 03:38:16;;;;;;;3.30;3.20;;;16.70;63.20;;;;;;5097794;27;43931;-75
2023/01/19 03:40:43;;;;;;;3.10;3.00;;;16.60;63.10;;;;;;5101017;27;43478;-73
2023/01/19 03:43:11;;;;;;;2.53;2.53;;;16.70;63.20;;;;;;5102225;27;43360;-75
2023/01/19 03:45:41;;;;;;;2.97;2.87;;;16.60;63.10;;;;;;5080678;27;43539;-75
2023/01/19 03:48:08;;;;;;;2.73;2.73;;;16.60;63.20;;;;;;5097776;27;43995;-73
2023/01/19 03:50:36;;;;;;;2.93;2.83;;;16.60;63.20;;;;;;5079469;27;43999;-75
2023/01/19 03:53:09;;;;;;;2.63;2.60;;;16.60;63.30;;;;;;5103375;27;43526;-75
2023/01/19 03:55:38;;;;;;;3.13;3.03;;;16.60;63.40;;;;;;5102308;27;43554;-71
2023/01/19 03:58:06;;;;;;;3.10;3.00;;;16.50;63.30;;;;;;5101967;27;43887;-75
2023/01/19 04:00:35;;;;;;;2.93;2.90;;;16.50;63.30;;;;;;5099349;27;43706;-74
2023/01/19 04:03:05;;;;;;;2.90;2.90;;;16.50;63.30;;;;;;5085408;27;43379;-74
2023/01/19 04:05:33;;;;;;;2.70;2.70;;;16.50;63.30;;;;;;5100996;27;43419;-75
2023/01/19 04:08:01;;;;;;;2.87;2.80;;;16.50;63.30;;;;;;5104576;27;43823;-73
2023/01/19 04:10:28;;;;;;;3.20;3.10;;;16.50;63.50;;;;;;5100783;27;43430;-75
2023/01/19 04:13:00;;;;;;;3.30;3.20;;;16.50;63.80;;;;;;5101356;27;44016;-74
2023/01/19 04:15:28;;;;;;;2.80;2.70;;;16.60;63.50;;;;;;5103913;27;43400;-74
2023/01/19 04:17:57;;;;;;;2.90;2.83;;;16.60;63.00;;;;;;5105335;27;43939;-75
2023/01/19 04:20:27;;;;;;;2.70;2.70;;;16.70;63.00;;;;;;5088801;27;45006;-73
2023/01/19 04:22:56;;;;;;;3.20;3.10;;;16.70;63.00;;;;;;5102932;27;44030;-73
2023/01/19 04:25:24;;;;;;;2.80;2.80;;;16.60;63.10;;;;;;5101761;27;43332;-74
2023/01/19 04:27:52;;;;;;;3.10;3.00;;;16.60;63.20;;;;;;5097415;27;43607;-74
2023/01/19 04:30:21;;;;;;;3.13;3.03;;;16.60;63.30;;;;;;5100450;27;43443;-73
2023/01/19 04:32:49;;;;;;;3.00;2.90;;;16.60;63.30;;;;;;5101823;27;43465;-74
2023/01/19 04:35:17;;;;;;;2.90;2.80;;;16.50;64.00;;;;;;5084149;27;43968;-73
2023/01/19 04:37:46;;;;;;;3.10;3.00;;;16.50;63.30;;;;;;5070484;27;47324;-74
2023/01/19 04:40:14;;;;;;;2.70;2.67;;;16.50;63.20;;;;;;5074981;27;44738;-74
2023/01/19 04:42:43;;;;;;;3.20;3.10;;;16.50;63.30;;;;;;5098869;27;43441;-72
2023/01/19 04:45:12;;;;;;;3.00;2.80;;;16.50;63.40;;;;;;5102359;27;43480;-75
2023/01/19 04:47:41;;;;;;;2.77;2.77;;;16.50;63.30;;;;;;5081552;27;45531;-75
2023/01/19 04:50:10;;;;;;;3.10;3.00;;;16.50;63.30;;;;;;5099668;27;43406;-74
2023/01/19 04:52:38;;;;;;;3.00;2.90;;;16.60;63.40;;;;;;5101470;27;43362;-74
2023/01/19 04:55:09;;;;;;;2.93;2.83;;;16.50;63.20;;;;;;5086321;27;43424;-74
2023/01/19 04:57:36;;;;;;;3.17;3.07;;;16.50;63.20;;;;;;5104884;27;43967;-73
2023/01/19 05:00:06;;;;;;;3.47;3.27;;;16.60;63.30;;;;;;5104897;27;43418;-74
2023/01/19 05:02:34;;;;;;;3.80;3.57;;;16.50;63.40;;;;;;5097301;27;43817;-75
2023/01/19 05:05:02;;;;;;;3.80;3.60;;;16.60;63.50;;;;;;5101467;27;43434;-74
2023/01/19 05:07:30;;;;;;;4.27;3.97;;;16.70;63.10;;;;;;5106074;27;43603;-75
2023/01/19 05:09:58;;;;;;;5.80;3.90;;;16.80;62.70;;;;;;5099453;27;44436;-75
2023/01/19 05:12:27;;;;;;;4.83;4.40;;;16.80;62.50;;;;;;5101720;27;43365;-72
2023/01/19 05:14:55;;;;;;;5.80;4.43;;;16.80;62.60;;;;;;5102745;27;44277;-73
2023/01/19 05:17:23;;;;;;;5.10;4.60;;;16.80;62.60;;;;;;5102656;27;44039;-74
2023/01/19 05:19:51;;;;;;;5.30;4.70;;;16.70;62.70;;;;;;5106009;27;44116;-74
2023/01/19 05:22:19;;;;;;;5.43;4.93;;;16.80;62.70;;;;;;5099851;27;43434;-75
2023/01/19 05:24:47;;;;;;;6.50;4.67;;;16.70;62.60;;;;;;5083533;27;43998;-75
2023/01/19 05:27:15;;;;;;;5.87;4.97;;;16.70;62.60;;;;;;5100876;27;43764;-72
2023/01/19 05:29:44;;;;;;;6.47;4.97;;;16.70;62.70;;;;;;5105353;27;44038;-75
2023/01/19 05:32:12;;;;;;;7.43;5.23;;;16.70;62.90;;;;;;5079837;27;43993;-74
2023/01/19 05:34:40;;;;;;;9.03;5.70;;;16.70;63.00;;;;;;5082134;27;43538;-74
2023/01/19 05:37:08;;;;;;;6.03;4.90;;;16.60;62.90;;;;;;5102172;27;43911;-75
2023/01/19 05:39:36;;;;;;;8.17;5.67;;;16.60;62.90;;;;;;5095013;27;43449;-75
2023/01/19 05:42:04;;;;;;;6.90;5.03;;;16.60;62.90;;;;;;5072428;27;43827;-74
2023/01/19 05:44:32;;;;;;;7.33;5.03;;;16.60;62.90;;;;;;5088806;27;43502;-75
2023/01/19 05:47:01;;;;;;;7.60;5.27;;;16.60;62.90;;;;;;5068946;28;45669;-74
2023/01/19 05:49:30;;;;;;;6.50;5.13;;;16.60;62.90;;;;;;5104418;27;43957;-74
2023/01/19 05:51:57;;;;;;;6.63;5.17;;;16.60;63.40;;;;;;5098104;27;43422;-75
2023/01/19 05:54:25;;;;;;;7.63;5.63;;;16.60;63.30;;;;;;5087694;27;43937;-74
2023/01/19 05:56:53;;;;;;;7.97;5.50;;;16.70;63.00;;;;;;5081418;27;45773;-75
2023/01/19 05:59:22;;;;;;;7.53;5.67;;;16.80;62.70;;;;;;5097195;27;43505;-74
2023/01/19 06:01:51;;;;;;;7.43;5.10;;;16.80;62.60;;;;;;5079268;27;43434;-75
2023/01/19 06:04:20;;;;;;;9.07;5.50;;;16.80;63.30;;;;;;5084871;27;43478;-75
2023/01/19 06:06:48;;;;;;;6.67;5.30;;;16.70;62.80;;;;;;5100334;27;43941;-74
2023/01/19 06:09:17;;;;;;;6.30;5.00;;;16.70;62.70;;;;;;5093182;27;46219;-74
2023/01/19 06:11:45;;;;;;;6.40;4.90;;;16.70;62.80;;;;;;5096411;27;43486;-73
2023/01/19 06:14:13;;;;;;;5.67;5.17;;;16.70;62.90;;;;;;5084160;27;43643;-73
2023/01/19 06:16:41;;;;;;;6.23;5.33;;;16.60;62.90;;;;;;5095787;27;43992;-74
2023/01/19 06:19:09;;;;;;;5.73;4.87;;;16.60;63.00;;;;;;5099959;27;43943;-74
2023/01/19 06:21:38;;;;;;;6.63;5.23;;;16.60;63.20;;;;;;5069026;27;43454;-71
2023/01/19 06:24:07;;;;;;;6.03;5.00;;;16.50;63.30;;;;;;5087818;27;43783;-74
2023/01/19 06:26:34;;;;;;;6.13;5.30;;;16.50;63.20;;;;;;5087966;27;43932;-74
2023/01/19 06:29:03;;;;;;;5.40;4.90;;;16.60;63.40;;;;;;5090601;27;43937;-75
2023/01/19 06:31:30;;;;;;;6.17;5.17;;;16.50;63.30;;;;;;5088867;27;43978;-75
2023/01/19 06:33:58;;;;;;;5.93;5.33;;;16.50;63.30;;;;;;5070269;28;43463;-73
2023/01/19 06:36:26;;;;;;;7.30;5.40;;;16.50;63.20;;;;;;5093589;27;43929;-75
2023/01/19 06:38:56;;;;;;;5.40;4.97;;;16.50;63.30;;;;;;5088188;27;43427;-73
2023/01/19 06:41:23;;;;;;;6.00;5.20;;;16.50;63.60;;;;;;5092493;27;43449;-73
2023/01/19 06:43:51;;;;;;;5.23;4.73;;;16.60;63.50;;;;;;5080785;27;43574;-74
2023/01/19 06:46:19;;;;;;;4.97;4.57;;;16.60;63.00;;;;;;5088519;27;43818;-75
2023/01/19 06:48:47;;;;;;;7.43;4.83;;;16.70;62.90;;;;;;5099842;27;43954;-74
2023/01/19 06:51:15;;;;;;;5.40;4.90;;;16.70;62.80;;;;;;5103835;27;43492;-74
2023/01/19 06:53:43;;;;;;;5.47;4.97;;;16.60;62.80;;;;;;5095960;27;44091;-74
2023/01/19 06:56:12;;;;;;;4.90;4.50;;;16.60;63.00;;;;;;5088458;27;43564;-75
2023/01/19 06:58:41;;;;;;;6.00;4.77;;;16.60;63.60;;;;;;5083833;27;44635;-75
2023/01/19 07:01:09;;;;;;;5.43;4.93;;;16.70;63.00;;;;;;5098167;27;43425;-74
2023/01/19 07:03:37;;;;;;;4.93;4.63;;;16.70;62.90;;;;;;5104593;27;43497;-74
2023/01/19 07:06:06;;;;;;;5.10;4.70;;;16.60;62.90;;;;;;5088932;27;45838;-74
2023/01/19 07:08:34;;;;;;;5.73;5.30;;;16.60;62.90;;;;;;5098188;27;43462;-73
2023/01/19 07:11:03;;;;;;;5.30;4.80;;;16.60;62.90;;;;;;5102630;27;44114;-73
2023/01/19 07:13:54;;;;;;;6.33;5.33;;;16.60;63.20;;;;;;5103364;27;43357;-74
2023/01/19 07:16:22;;;;;;;5.27;4.77;;;16.60;63.10;;;;;;5101880;27;43923;-74
2023/01/19 07:18:50;;;;;;;4.83;4.43;;;16.60;63.00;;;;;;5100708;27;43745;-75
2023/01/19 07:21:18;;;;;;;5.27;4.77;;;16.60;63.00;;;;;;5099693;27;43445;-74
2023/01/19 07:23:49;;;;;;;5.47;5.00;;;16.60;63.00;;;;;;5104548;27;43420;-74
2023/01/19 07:26:20;;;;;;;5.20;4.73;;;16.60;63.10;;;;;;5101570;27;43863;-74
2023/01/19 07:28:48;;;;;;;5.20;4.70;;;16.60;63.20;;;;;;5103370;27;43467;-74
2023/01/19 07:31:17;;;;;;;5.20;4.80;;;16.50;63.40;;;;;;5106808;27;44115;-74
2023/01/19 07:33:46;;;;;;;4.57;4.23;;;16.60;63.30;;;;;;5102097;27;43430;-74
2023/01/19 07:36:13;;;;;;;4.63;4.23;;;16.70;63.00;;;;;;5078882;27;45951;-74
2023/01/19 07:38:41;;;;;;;4.83;4.47;;;16.80;62.70;;;;;;5099706;27;43386;-74
2023/01/19 07:41:09;;;;;;;4.30;4.10;;;16.70;62.50;;;;;;5081370;27;43924;-74
2023/01/19 07:43:37;;;;;;;4.90;4.60;;;16.70;62.60;;;;;;5101779;27;43395;-71
2023/01/19 07:46:06;;;;;;;5.00;4.60;;;16.70;62.90;;;;;;5106452;27;43939;-74
2023/01/19 07:48:35;;;;;;;4.63;4.40;;;16.70;62.90;;;;;;5102574;27;43946;-74
2023/01/19 07:51:07;;;;;;;5.30;4.90;;;16.60;62.90;;;;;;5098778;27;43326;-74
2023/01/19 07:53:40;;;;;;;5.13;4.73;;;16.60;62.90;;;;;;5083969;27;43456;-74
2023/01/19 07:56:08;;;;;;;5.00;4.60;;;16.60;62.90;;;;;;5104366;27;43623;-75
2023/01/19 07:58:36;;;;;;;4.50;4.30;;;16.60;63.00;;;;;;5104235;27;43385;-74
2023/01/19 08:01:06;;;;;;;4.40;4.20;;;16.60;63.10;;;;;;5087107;27;43848;-75
2023/01/19 08:03:36;;;;;;;4.27;4.07;;;16.50;63.30;;;;;;5073750;28;43460;-74
2023/01/19 08:06:04;;;;;;;4.67;4.40;;;16.50;63.10;;;;;;5095896;27;43960;-72
2023/01/19 08:08:33;;;;;;;4.77;4.20;;;16.50;63.10;;;;;;5102734;27;43375;-75
2023/01/19 08:11:01;;;;;;;4.33;4.03;;;16.50;63.10;;;;;;5083536;27;43838;-73
2023/01/19 08:13:29;;;;;;;4.50;4.30;;;16.50;63.20;;;;;;5095925;27;43439;-74
2023/01/19 08:15:57;;;;;;;4.30;4.10;;;16.50;63.20;;;;;;5102146;27;43950;-74
2023/01/19 08:18:25;;;;;;;4.50;4.30;;;16.50;63.30;;;;;;5104454;27;43886;-75
2023/01/19 08:20:55;;;;;;;4.40;4.10;;;16.50;63.60;;;;;;5104812;27;43449;-73
2023/01/19 08:23:23;;;;;;;4.23;4.03;;;16.50;63.30;;;;;;5082123;27;43516;-75
2023/01/19 08:25:51;;;;;;;4.43;4.23;;;16.60;63.10;;;;;;5104661;27;43953;-74
2023/01/19 08:28:18;;;;;;;4.00;3.80;;;16.70;62.70;;;;;;5100388;27;43427;-74
2023/01/19 08:30:52;;;;;;;4.23;4.03;;;16.70;62.70;;;;;;5092600;27;43473;-75
2023/01/19 08:33:21;;;;;;;4.40;4.10;;;16.70;62.80;;;;;;5098978;27;43480;-73
2023/01/19 08:35:51;;;;;;;4.77;4.47;;;16.70;63.00;;;;;;5079939;27;45630;-74
2023/01/19 08:38:20;;;;;;;4.27;4.07;;;16.60;62.90;;;;;;5099235;27;43498;-74
2023/01/19 08:40:48;;;;;;;4.37;4.10;;;16.60;62.90;;;;;;5094740;27;43412;-71
2023/01/19 08:43:16;;;;;;;4.30;4.03;;;16.60;62.90;;;;;;5091090;27;43489;-74
2023/01/19 08:45:47;;;;;;;3.77;3.57;;;16.60;63.00;;;;;;5106021;27;43737;-74
2023/01/19 08:48:15;;;;;;;3.80;3.70;;;16.60;63.10;;;;;;5098188;27;43500;-74
2023/01/19 08:50:44;;;;;;;4.27;4.07;;;16.60;63.20;;;;;;5104828;27;43425;-71
2023/01/19 08:53:12;;;;;;;3.97;3.77;;;16.50;63.40;;;;;;5100405;27;43426;-74
2023/01/19 08:55:42;;;;;;;4.47;4.17;;;16.50;63.20;;;;;;5095607;27;43927;-74
2023/01/19 08:58:10;;;;;;;3.60;3.50;;;16.50;63.20;;;;;;5082039;27;44813;-74
2023/01/19 09:00:39;;;;;;;3.87;3.73;;;16.50;63.20;;;;;;5106048;27;43521;-74
2023/01/19 09:03:07;;;;;;;4.03;3.83;;;16.50;63.20;;;;;;5083599;27;43916;-75
2023/01/19 09:05:37;;;;;;;3.77;3.57;;;16.50;63.30;;;;;;5102483;27;43885;-75
2023/01/19 09:08:07;;;;;;;4.10;3.90;;;16.50;63.30;;;;;;5099533;27;43473;-73
2023/01/19 09:10:36;;;;;;;4.17;3.97;;;16.50;63.40;;;;;;5099588;27;43406;-74
2023/01/19 09:13:07;;;;;;;3.80;3.70;;;16.50;63.40;;;;;;5097331;27;43388;-75
2023/01/19 09:15:36;;;;;;;3.90;3.70;;;16.50;63.30;;;;;;5102791;27;43841;-74
2023/01/19 09:18:05;;;;;;;4.00;3.80;;;16.50;63.30;;;;;;5085705;27;44260;-75
2023/01/19 09:20:37;;;;;;;3.80;3.70;;;16.50;63.40;;;;;;5097979;27;43385;-75
2023/01/19 09:23:05;;;;;;;3.87;3.67;;;16.50;63.40;;;;;;5099899;27;44079;-74
2023/01/19 09:25:33;;;;;;;4.07;3.97;;;16.40;63.50;;;;;;5084045;27;45764;-75
2023/01/19 09:28:01;;;;;;;3.77;3.57;;;16.50;63.70;;;;;;5098559;27;43356;-73
2023/01/19 09:30:31;;;;;;;3.67;3.57;;;16.60;63.50;;;;;;5097765;27;43839;-74
2023/01/19 09:33:03;;;;;;;3.70;3.60;;;16.60;63.10;;;;;;5082336;27;43519;-75
2023/01/19 09:35:31;;;;;;;4.17;4.03;;;16.70;62.70;;;;;;5077679;28;45782;-74
2023/01/19 09:37:59;;;;;;;3.63;3.50;;;16.70;62.70;;;;;;5096476;27;43466;-74
2023/01/19 09:40:27;;;;;;;4.10;3.90;;;16.70;62.80;;;;;;5100919;27;43328;-75
2023/01/19 09:42:58;;;;;;;3.80;3.70;;;16.60;62.90;;;;;;5098934;27;43999;-74
2023/01/19 09:45:31;;;;;;;3.87;3.67;;;16.60;62.90;;;;;;5100794;27;43878;-74
2023/01/19 09:47:59;;;;;;;3.43;3.33;;;16.60;62.90;;;;;;5077330;27;44394;-73
2023/01/19 09:50:28;;;;;;;4.30;4.10;;;16.60;62.90;;;;;;5082326;27;43946;-75
2023/01/19 09:52:59;;;;;;;3.80;3.70;;;16.60;63.00;;;;;;5102986;27;43457;-75
2023/01/19 09:55:28;;;;;;;3.87;3.67;;;16.50;63.00;;;;;;5080310;27;45693;-74
2023/01/19 09:57:56;;;;;;;3.73;3.53;;;16.50;63.20;;;;;;5081761;27;45155;-74
2023/01/19 10:00:24;;;;;;;3.90;3.70;;;16.50;63.40;;;;;;5101397;27;43951;-75
2023/01/19 10:02:55;;;;;;;3.83;3.60;;;16.50;63.30;;;;;;5103059;27;43409;-74
2023/01/19 10:05:27;;;;;;;3.77;3.57;;;16.50;63.30;;;;;;5096391;27;43895;-73
2023/01/19 10:08:02;;;;;;;3.73;3.53;;;16.50;63.20;;;;;;5080116;27;43877;-74
2023/01/19 10:10:31;;;;;;;4.23;4.13;;;16.50;63.30;;;;;;5100041;27;43419;-74
2023/01/19 10:13:10;;;;;;;3.87;3.67;;;16.50;63.30;;;;;;5096252;27;44355;-73
2023/01/19 10:15:43;;;;;;;4.20;3.90;;;16.50;63.50;;;;;;5102739;27;43762;-73
2023/01/19 10:18:16;;;;;;;3.47;3.37;;;16.50;63.40;;;;;;5105570;27;43404;-74
2023/01/19 10:20:47;;;;;;;3.90;3.70;;;16.50;63.40;;;;;;5099365;27;44123;-74
2023/01/19 10:23:29;;;;;;;3.87;3.73;;;16.50;63.40;;;;;;5098169;27;43447;-74
2023/01/19 10:25:57;;;;;;;4.07;3.87;;;16.50;63.40;;;;;;5073074;27;46074;-73
2023/01/19 10:28:25;;;;;;;3.80;3.60;;;16.50;63.50;;;;;;5099523;27;43404;-75
2023/01/19 10:30:54;;;;;;;3.77;3.60;;;16.50;63.50;;;;;;5100273;27;43414;-74
2023/01/19 10:33:23;;;;;;;3.80;3.70;;;16.40;63.60;;;;;;5094849;27;43475;-75
2023/01/19 10:35:51;;;;;;;3.57;3.47;;;16.50;63.50;;;;;;5082092;27;46050;-75
2023/01/19 10:38:20;;;;;;;3.77;3.67;;;16.60;63.20;;;;;;5100465;27;44100;-76
2023/01/19 10:40:53;;;;;;;3.57;3.47;;;16.70;62.70;;;;;;5085272;27;43423;-75
2023/01/19 10:43:36;;;;;;;3.40;3.30;;;16.70;62.50;;;;;;5077377;27;43523;-75
2023/01/19 10:46:05;;;;;;;3.63;3.53;;;16.70;62.60;;;;;;5080729;27;45635;-73
2023/01/19 10:48:40;;;;;;;3.60;3.50;;;16.70;62.90;;;;;;5100502;27;44038;-75
2023/01/19 10:51:09;;;;;;;3.53;3.43;;;16.70;62.80;;;;;;5084189;28;43419;-74
2023/01/19 10:53:37;;;;;;;3.73;3.53;;;16.70;62.80;;;;;;5087844;27;43487;-71
2023/01/19 10:56:13;;;;;;;3.60;3.40;;;16.70;62.90;;;;;;5108817;27;43592;-74
2023/01/19 10:58:41;;;;;;;3.33;3.23;;;16.60;62.90;;;;;;5101044;27;43408;-73
2023/01/19 11:01:14;;;;;;;3.90;3.70;;;16.60;63.00;;;;;;5102355;27;43409;-74
2023/01/19 11:03:43;;;;;;;3.50;3.40;;;16.60;63.00;;;;;;5101035;27;43411;-73
2023/01/19 11:06:26;;;;;;;3.37;3.17;;;16.50;63.20;;;;;;5096797;27;43932;-73
2023/01/19 11:09:09;;;;;;;3.50;3.40;;;16.50;63.10;;;;;;5083676;27;45130;-75
2023/01/19 11:11:48;;;;;;;3.30;3.20;;;16.60;63.20;;;;;;5099579;27;43423;-74
2023/01/19 11:14:19;;;;;;;3.20;3.10;;;16.50;63.10;;;;;;5101139;27;43542;-75
2023/01/19 11:16:48;;;;;;;3.57;3.43;;;16.50;63.10;;;;;;5091870;27;43938;-75
2023/01/19 11:19:24;;;;;;;3.40;3.30;;;16.50;63.10;;;;;;5086541;27;44680;-72
2023/01/19 11:21:53;;;;;;;3.40;3.20;;;16.50;63.30;;;;;;5078763;27;43946;-73
2023/01/19 11:24:20;;;;;;;3.30;3.20;;;16.50;63.20;;;;;;5086746;27;43511;-74
2023/01/19 11:26:49;;;;;;;3.37;3.23;;;16.50;63.90;;;;;;5104398;27;43899;-74
2023/01/19 11:29:19;;;;;;;3.07;2.97;;;16.50;63.10;;;;;;5086484;27;43568;-74
2023/01/19 11:31:47;;;;;;;3.17;3.07;;;16.50;63.10;;;;;;5101724;27;43987;-74
2023/01/19 11:34:30;;;;;;;3.33;3.20;;;16.50;63.10;;;;;;5092744;27;43902;-75
2023/01/19 11:36:59;;;;;;;3.10;3.00;;;16.50;63.30;;;;;;5100387;27;43918;-74
2023/01/19 11:39:28;;;;;;;3.03;2.93;;;16.50;63.50;;;;;;5102871;27;43486;-74
2023/01/19 11:41:57;;;;;;;3.10;3.00;;;16.50;63.40;;;;;;5094394;27;43421;-75
2023/01/19 11:44:28;;;;;;;3.10;3.00;;;16.60;63.00;;;;;;5101581;27;43807;-75
2023/01/19 11:46:57;;;;;;;2.90;2.80;;;16.70;62.60;;;;;;5083638;27;46196;-74
2023/01/19 11:49:29;;;;;;;3.47;3.27;;;16.70;62.50;;;;;;5099801;27;43367;-75
2023/01/19 11:51:59;;;;;;;3.00;2.90;;;16.70;62.60;;;;;;5105863;27;43366;-74
2023/01/19 11:54:29;;;;;;;2.90;2.80;;;16.60;62.80;;;;;;5097602;27;43609;-74
2023/01/19 11:56:58;;;;;;;3.20;3.10;;;16.60;62.80;;;;;;5101753;27;44107;-75
2023/01/19 11:59:26;;;;;;;3.00;2.90;;;16.60;62.80;;;;;;5086866;27;45186;-74
2023/01/19 12:01:56;;;;;;;3.10;3.00;;;16.60;62.80;;;;;;5082847;27;43426;-74
2023/01/19 12:04:27;;;;;;;2.90;2.80;;;16.60;62.90;;;;;;5090264;27;43458;-74
2023/01/19 12:06:55;;;;;;;2.43;2.43;;;16.60;62.90;;;;;;5092614;27;43860;-75
2023/01/19 12:09:24;;;;;;;3.23;3.13;;;16.60;63.00;;;;;;5100924;27;43446;-74
2023/01/19 12:11:55;;;;;;;2.77;2.67;;;16.60;63.20;;;;;;5079345;27;43479;-74
2023/01/19 12:14:25;;;;;;;3.17;3.07;;;16.50;63.00;;;;;;5097546;27;43434;-73
2023/01/19 12:16:54;;;;;;;2.80;2.70;;;16.50;63.00;;;;;;5105781;27;43747;-73
2023/01/19 12:19:24;;;;;;;3.07;2.97;;;16.50;63.00;;;;;;5073859;27;45163;-74
2023/01/19 12:21:53;;;;;;;2.80;2.70;;;16.50;63.10;;;;;;5085787;27;43962;-75
2023/01/19 12:24:26;;;;;;;2.83;2.73;;;16.50;63.10;;;;;;5085100;27;43582;-74
2023/01/19 12:26:55;;;;;;;2.93;2.83;;;16.50;63.30;;;;;;5092334;27;43695;-74
2023/01/19 12:29:24;;;;;;;3.30;3.00;;;16.50;63.70;;;;;;5083726;27;44730;-75
2023/01/19 12:32:16;;;;;;;2.67;2.60;;;16.60;62.30;;;;;;5098997;27;44142;-74
2023/01/19 12:34:45;;;;;;;2.67;2.57;;;16.60;62.30;;;;;;5014230;28;1102402;-75
2023/01/19 12:37:31;;;;;;;2.87;2.77;;;16.70;62.20;;;;;;5049467;28;45539;-75
2023/01/19 12:40:00;;;;;;;2.70;2.60;;;16.70;62.20;;;;;;5038200;28;43504;-73
2023/01/19 12:42:28;;;;;;;2.53;2.43;;;16.60;62.20;;;;;;5051003;28;44074;-75
2023/01/19 12:45:05;;;;;;;2.80;2.70;;;16.60;62.50;;;;;;5053853;28;43951;-74
2023/01/19 12:47:33;;;;;;;3.03;2.93;;;16.60;62.50;;;;;;5052283;28;45680;-74
2023/01/19 12:50:05;;;;;;;2.60;2.50;;;16.60;62.40;;;;;;5054992;28;43479;-72
2023/01/19 12:52:35;;;;;;;2.63;2.57;;;16.60;62.60;;;;;;5050089;28;43445;-75
2023/01/19 12:55:14;;;;;;;2.20;2.20;;;16.60;62.60;;;;;;5053327;28;43373;-75
2023/01/19 12:57:48;;;;;;;2.53;2.43;;;16.50;62.60;;;;;;5052246;28;43924;-74
2023/01/19 13:00:29;;;;;;;2.77;2.67;;;16.50;62.80;;;;;;5050596;28;43386;-75
2023/01/19 13:02:57;;;;;;;2.50;2.50;;;16.50;62.80;;;;;;5042040;28;43858;-75
2023/01/19 13:05:58;;;;;;;2.83;2.63;;;16.50;62.80;;;;;;5053211;28;43487;-75
2023/01/19 13:08:50;;;;;;;2.63;2.53;;;16.50;62.80;;;;;;5049168;28;44012;-74
2023/01/19 13:11:22;;;;;;;2.57;2.47;;;16.50;62.80;;;;;;5047515;28;43450;-74
2023/01/19 13:14:35;;;;;;;2.30;2.30;;;16.50;62.90;;;;;;5051516;28;43359;-74